sensor_id;sensor_type;location;lat;lon;timestamp;P1;durP1;ratioP1;P2;durP2;ratioP2
3689;SDS011;1861;50.240;8.596;2023-12-20T00:01:22;2.40;;;1.70;;
3689;SDS011;1861;50.240;8.596;2023-12-20T00:03:51;1.50;;;1.40;;
3689;SDS011;1861;50.240;8.596;2023-12-20T00:06:20;1.90;;;1.70;;
3689;SDS011;1861;50.240;8.596;2023-12-20T00:08:48;4.50;;;1.43;;
3689;SDS011;1861;50.240;8.596;2023-12-20T00:11:16;1.80;;;1.40;;
3689;SDS011;1861;50.240;8.596;2023-12-20T00:13:44;1.33;;;1.23;;
3689;SDS011;1861;50.240;8.596;2023-12-20T00:16:17;1.60;;;1.40;;
3689;SDS011;1861;50.240;8.596;2023-12-20T00:18:45;1.73;;;1.17;;
3689;SDS011;1861;50.240;8.596;2023-12-20T00:21:13;1.20;;;1.10;;
3689;SDS011;1861;50.240;8.596;2023-12-20T00:23:43;2.27;;;1.57;;
3689;SDS011;1861;50.240;8.596;2023-12-20T00:26:11;6.50;;;1.67;;
3689;SDS011;1861;50.240;8.596;2023-12-20T00:28:39;1.87;;;1.30;;
3689;SDS011;1861;50.240;8.596;2023-12-20T00:31:07;1.53;;;1.20;;
3689;SDS011;1861;50.240;8.596;2023-12-20T00:33:36;1.50;;;1.30;;
3689;SDS011;1861;50.240;8.596;2023-12-20T00:36:06;1.70;;;1.60;;
3689;SDS011;1861;50.240;8.596;2023-12-20T00:38:34;2.90;;;1.93;;
3689;SDS011;1861;50.240;8.596;2023-12-20T00:41:04;1.60;;;1.50;;
3689;SDS011;1861;50.240;8.596;2023-12-20T00:43:32;2.73;;;1.97;;
3689;SDS011;1861;50.240;8.596;2023-12-20T00:46:00;2.60;;;1.80;;
3689;SDS011;1861;50.240;8.596;2023-12-20T00:48:28;2.77;;;2.10;;
3689;SDS011;1861;50.240;8.596;2023-12-20T00:50:57;3.50;;;2.50;;
3689;SDS011;1861;50.240;8.596;2023-12-20T00:53:25;3.87;;;2.27;;
3689;SDS011;1861;50.240;8.596;2023-12-20T00:55:54;2.73;;;2.20;;
3689;SDS011;1861;50.240;8.596;2023-12-20T00:58:23;2.90;;;2.60;;
3689;SDS011;1861;50.240;8.596;2023-12-20T01:00:51;3.20;;;2.10;;
3689;SDS011;1861;50.240;8.596;2023-12-20T01:03:20;2.87;;;2.07;;
3689;SDS011;1861;50.240;8.596;2023-12-20T01:05:48;3.23;;;2.10;;
3689;SDS011;1861;50.240;8.596;2023-12-20T01:08:16;2.50;;;2.00;;
3689;SDS011;1861;50.240;8.596;2023-12-20T01:10:44;3.17;;;2.53;;
3689;SDS011;1861;50.240;8.596;2023-12-20T01:13:13;2.40;;;2.20;;
3689;SDS011;1861;50.240;8.596;2023-12-20T01:15:43;3.07;;;2.70;;
3689;SDS011;1861;50.240;8.596;2023-12-20T01:18:11;5.33;;;2.73;;
3689;SDS011;1861;50.240;8.596;2023-12-20T01:20:39;3.63;;;2.93;;
3689;SDS011;1861;50.240;8.596;2023-12-20T01:23:07;3.93;;;2.87;;
3689;SDS011;1861;50.240;8.596;2023-12-20T01:25:36;3.10;;;2.03;;
3689;SDS011;1861;50.240;8.596;2023-12-20T01:28:04;4.97;;;2.20;;
3689;SDS011;1861;50.240;8.596;2023-12-20T01:30:32;6.57;;;2.90;;
3689;SDS011;1861;50.240;8.596;2023-12-20T01:33:02;3.80;;;2.57;;
3689;SDS011;1861;50.240;8.596;2023-12-20T01:35:30;2.53;;;2.10;;
3689;SDS011;1861;50.240;8.596;2023-12-20T01:37:58;3.93;;;2.40;;
3689;SDS011;1861;50.240;8.596;2023-12-20T01:40:26;3.00;;;2.57;;
3689;SDS011;1861;50.240;8.596;2023-12-20T01:42:58;3.77;;;2.50;;
3689;SDS011;1861;50.240;8.596;2023-12-20T01:45:27;3.00;;;2.20;;
3689;SDS011;1861;50.240;8.596;2023-12-20T01:47:57;4.13;;;2.60;;
3689;SDS011;1861;50.240;8.596;2023-12-20T01:50:28;2.70;;;2.30;;
3689;SDS011;1861;50.240;8.596;2023-12-20T01:52:57;5.30;;;3.50;;
3689;SDS011;1861;50.240;8.596;2023-12-20T01:55:29;2.70;;;2.50;;
3689;SDS011;1861;50.240;8.596;2023-12-20T01:57:59;4.30;;;2.33;;
3689;SDS011;1861;50.240;8.596;2023-12-20T02:00:27;3.23;;;2.40;;
3689;SDS011;1861;50.240;8.596;2023-12-20T02:02:57;2.60;;;2.40;;
3689;SDS011;1861;50.240;8.596;2023-12-20T02:05:30;3.30;;;2.87;;
3689;SDS011;1861;50.240;8.596;2023-12-20T02:07:59;2.93;;;2.73;;
3689;SDS011;1861;50.240;8.596;2023-12-20T02:10:28;2.37;;;2.10;;
3689;SDS011;1861;50.240;8.596;2023-12-20T02:12:56;3.20;;;2.67;;
3689;SDS011;1861;50.240;8.596;2023-12-20T02:15:25;3.80;;;2.50;;
3689;SDS011;1861;50.240;8.596;2023-12-20T02:17:53;3.77;;;2.80;;
3689;SDS011;1861;50.240;8.596;2023-12-20T02:20:22;2.73;;;2.50;;
3689;SDS011;1861;50.240;8.596;2023-12-20T02:22:51;2.80;;;2.50;;
3689;SDS011;1861;50.240;8.596;2023-12-20T02:25:19;2.30;;;2.10;;
3689;SDS011;1861;50.240;8.596;2023-12-20T02:27:48;4.10;;;2.77;;
3689;SDS011;1861;50.240;8.596;2023-12-20T02:30:17;2.67;;;2.43;;
3689;SDS011;1861;50.240;8.596;2023-12-20T02:32:45;2.70;;;2.30;;
3689;SDS011;1861;50.240;8.596;2023-12-20T02:35:13;2.23;;;1.93;;
3689;SDS011;1861;50.240;8.596;2023-12-20T02:37:42;5.23;;;2.53;;
3689;SDS011;1861;50.240;8.596;2023-12-20T02:40:12;3.67;;;2.37;;
3689;SDS011;1861;50.240;8.596;2023-12-20T02:42:40;3.23;;;2.30;;
3689;SDS011;1861;50.240;8.596;2023-12-20T02:45:08;2.97;;;2.67;;
3689;SDS011;1861;50.240;8.596;2023-12-20T02:47:36;3.03;;;2.53;;
3689;SDS011;1861;50.240;8.596;2023-12-20T02:50:04;2.77;;;1.90;;
3689;SDS011;1861;50.240;8.596;2023-12-20T02:52:32;3.20;;;2.37;;
3689;SDS011;1861;50.240;8.596;2023-12-20T02:55:00;2.40;;;2.20;;
3689;SDS011;1861;50.240;8.596;2023-12-20T02:57:29;2.70;;;2.30;;
3689;SDS011;1861;50.240;8.596;2023-12-20T02:59:58;1.83;;;1.67;;
3689;SDS011;1861;50.240;8.596;2023-12-20T03:02:26;2.80;;;2.10;;
3689;SDS011;1861;50.240;8.596;2023-12-20T03:04:54;3.10;;;1.60;;
3689;SDS011;1861;50.240;8.596;2023-12-20T03:07:22;1.67;;;1.17;;
3689;SDS011;1861;50.240;8.596;2023-12-20T03:09:50;1.50;;;1.17;;
3689;SDS011;1861;50.240;8.596;2023-12-20T03:12:40;1.30;;;1.20;;
3689;SDS011;1861;50.240;8.596;2023-12-20T03:15:08;1.63;;;1.20;;
3689;SDS011;1861;50.240;8.596;2023-12-20T03:17:37;1.57;;;1.03;;
3689;SDS011;1861;50.240;8.596;2023-12-20T03:20:06;1.50;;;1.40;;
3689;SDS011;1861;50.240;8.596;2023-12-20T03:22:35;1.60;;;1.50;;
3689;SDS011;1861;50.240;8.596;2023-12-20T03:25:04;1.40;;;1.13;;
3689;SDS011;1861;50.240;8.596;2023-12-20T03:27:32;1.37;;;1.27;;
3689;SDS011;1861;50.240;8.596;2023-12-20T03:30:01;2.90;;;1.70;;
3689;SDS011;1861;50.240;8.596;2023-12-20T03:32:30;1.33;;;1.23;;
3689;SDS011;1861;50.240;8.596;2023-12-20T03:34:58;1.60;;;1.50;;
3689;SDS011;1861;50.240;8.596;2023-12-20T03:37:27;1.70;;;1.47;;
3689;SDS011;1861;50.240;8.596;2023-12-20T03:39:55;2.33;;;1.40;;
3689;SDS011;1861;50.240;8.596;2023-12-20T03:42:23;1.30;;;1.20;;
3689;SDS011;1861;50.240;8.596;2023-12-20T03:44:51;1.30;;;1.03;;
3689;SDS011;1861;50.240;8.596;2023-12-20T03:47:21;1.27;;;1.17;;
3689;SDS011;1861;50.240;8.596;2023-12-20T03:49:49;1.10;;;1.00;;
3689;SDS011;1861;50.240;8.596;2023-12-20T03:52:17;1.60;;;1.50;;
3689;SDS011;1861;50.240;8.596;2023-12-20T03:54:45;1.50;;;1.40;;
3689;SDS011;1861;50.240;8.596;2023-12-20T03:57:13;1.97;;;1.40;;
3689;SDS011;1861;50.240;8.596;2023-12-20T03:59:41;1.40;;;1.30;;
3689;SDS011;1861;50.240;8.596;2023-12-20T04:02:09;1.40;;;1.30;;
3689;SDS011;1861;50.240;8.596;2023-12-20T04:04:39;1.30;;;1.20;;
3689;SDS011;1861;50.240;8.596;2023-12-20T04:07:07;1.50;;;1.40;;
3689;SDS011;1861;50.240;8.596;2023-12-20T04:09:35;1.40;;;1.30;;
3689;SDS011;1861;50.240;8.596;2023-12-20T04:12:04;2.00;;;1.50;;
3689;SDS011;1861;50.240;8.596;2023-12-20T04:14:33;2.27;;;1.43;;
3689;SDS011;1861;50.240;8.596;2023-12-20T04:17:01;1.93;;;1.73;;
3689;SDS011;1861;50.240;8.596;2023-12-20T04:19:29;1.53;;;1.30;;
3689;SDS011;1861;50.240;8.596;2023-12-20T04:21:58;1.33;;;1.23;;
3689;SDS011;1861;50.240;8.596;2023-12-20T04:24:27;2.30;;;1.33;;
3689;SDS011;1861;50.240;8.596;2023-12-20T04:26:55;2.50;;;1.50;;
3689;SDS011;1861;50.240;8.596;2023-12-20T04:29:23;1.90;;;1.40;;
3689;SDS011;1861;50.240;8.596;2023-12-20T04:31:51;1.53;;;1.27;;
3689;SDS011;1861;50.240;8.596;2023-12-20T04:34:19;1.77;;;1.60;;
3689;SDS011;1861;50.240;8.596;2023-12-20T04:36:48;1.73;;;1.60;;
3689;SDS011;1861;50.240;8.596;2023-12-20T04:39:17;3.00;;;1.27;;
3689;SDS011;1861;50.240;8.596;2023-12-20T04:41:45;1.30;;;1.20;;
3689;SDS011;1861;50.240;8.596;2023-12-20T04:44:14;2.13;;;1.60;;
3689;SDS011;1861;50.240;8.596;2023-12-20T04:46:42;2.20;;;1.07;;
3689;SDS011;1861;50.240;8.596;2023-12-20T04:49:10;3.30;;;1.47;;
3689;SDS011;1861;50.240;8.596;2023-12-20T04:51:38;2.03;;;1.03;;
3689;SDS011;1861;50.240;8.596;2023-12-20T04:54:07;5.23;;;1.40;;
3689;SDS011;1861;50.240;8.596;2023-12-20T04:56:37;1.90;;;1.03;;
3689;SDS011;1861;50.240;8.596;2023-12-20T04:59:05;2.67;;;1.10;;
3689;SDS011;1861;50.240;8.596;2023-12-20T05:01:34;3.70;;;1.20;;
3689;SDS011;1861;50.240;8.596;2023-12-20T05:04:02;2.80;;;1.37;;
3689;SDS011;1861;50.240;8.596;2023-12-20T05:06:30;4.30;;;1.13;;
3689;SDS011;1861;50.240;8.596;2023-12-20T05:08:58;1.47;;;0.90;;
3689;SDS011;1861;50.240;8.596;2023-12-20T05:11:26;3.00;;;1.30;;
3689;SDS011;1861;50.240;8.596;2023-12-20T05:13:56;2.37;;;1.53;;
3689;SDS011;1861;50.240;8.596;2023-12-20T05:16:24;7.17;;;2.07;;
3689;SDS011;1861;50.240;8.596;2023-12-20T05:18:52;3.37;;;0.90;;
3689;SDS011;1861;50.240;8.596;2023-12-20T05:21:20;4.37;;;1.00;;
3689;SDS011;1861;50.240;8.596;2023-12-20T05:23:48;2.60;;;1.00;;
3689;SDS011;1861;50.240;8.596;2023-12-20T05:26:16;9.87;;;1.23;;
3689;SDS011;1861;50.240;8.596;2023-12-20T05:28:44;2.17;;;1.10;;
3689;SDS011;1861;50.240;8.596;2023-12-20T05:31:14;4.00;;;0.90;;
3689;SDS011;1861;50.240;8.596;2023-12-20T05:33:42;2.03;;;1.00;;
3689;SDS011;1861;50.240;8.596;2023-12-20T05:36:10;7.10;;;1.50;;
3689;SDS011;1861;50.240;8.596;2023-12-20T05:38:40;4.60;;;1.20;;
3689;SDS011;1861;50.240;8.596;2023-12-20T05:41:08;2.70;;;1.63;;
3689;SDS011;1861;50.240;8.596;2023-12-20T05:43:36;4.77;;;1.30;;
3689;SDS011;1861;50.240;8.596;2023-12-20T05:46:04;4.47;;;1.20;;
3689;SDS011;1861;50.240;8.596;2023-12-20T05:48:34;3.47;;;1.00;;
3689;SDS011;1861;50.240;8.596;2023-12-20T05:51:02;9.23;;;1.53;;
3689;SDS011;1861;50.240;8.596;2023-12-20T05:53:31;1.37;;;0.80;;
3689;SDS011;1861;50.240;8.596;2023-12-20T05:55:59;2.13;;;1.60;;
3689;SDS011;1861;50.240;8.596;2023-12-20T05:58:27;8.50;;;1.07;;
3689;SDS011;1861;50.240;8.596;2023-12-20T06:00:56;1.60;;;1.00;;
3689;SDS011;1861;50.240;8.596;2023-12-20T06:03:24;1.67;;;0.90;;
3689;SDS011;1861;50.240;8.596;2023-12-20T06:05:53;4.27;;;1.00;;
3689;SDS011;1861;50.240;8.596;2023-12-20T06:08:38;4.93;;;1.40;;
3689;SDS011;1861;50.240;8.596;2023-12-20T06:11:09;1.10;;;0.73;;
3689;SDS011;1861;50.240;8.596;2023-12-20T06:13:38;2.50;;;0.60;;
3689;SDS011;1861;50.240;8.596;2023-12-20T06:16:06;9.93;;;1.20;;
3689;SDS011;1861;50.240;8.596;2023-12-20T06:18:34;2.70;;;1.03;;
3689;SDS011;1861;50.240;8.596;2023-12-20T06:21:05;1.57;;;0.83;;
3689;SDS011;1861;50.240;8.596;2023-12-20T06:23:34;2.53;;;1.10;;
3689;SDS011;1861;50.240;8.596;2023-12-20T06:26:02;6.40;;;1.30;;
3689;SDS011;1861;50.240;8.596;2023-12-20T06:28:30;4.87;;;1.03;;
3689;SDS011;1861;50.240;8.596;2023-12-20T06:30:59;6.10;;;1.30;;
3689;SDS011;1861;50.240;8.596;2023-12-20T06:33:28;4.60;;;1.00;;
3689;SDS011;1861;50.240;8.596;2023-12-20T06:35:57;2.60;;;1.10;;
3689;SDS011;1861;50.240;8.596;2023-12-20T06:38:26;2.20;;;1.10;;
3689;SDS011;1861;50.240;8.596;2023-12-20T06:40:55;5.77;;;1.10;;
3689;SDS011;1861;50.240;8.596;2023-12-20T06:43:24;3.63;;;0.90;;
3689;SDS011;1861;50.240;8.596;2023-12-20T06:45:56;4.83;;;1.27;;
3689;SDS011;1861;50.240;8.596;2023-12-20T06:48:25;5.00;;;1.20;;
3689;SDS011;1861;50.240;8.596;2023-12-20T06:50:53;7.40;;;0.93;;
3689;SDS011;1861;50.240;8.596;2023-12-20T06:53:22;5.93;;;1.47;;
3689;SDS011;1861;50.240;8.596;2023-12-20T06:55:51;5.60;;;0.93;;
3689;SDS011;1861;50.240;8.596;2023-12-20T06:58:19;2.20;;;1.00;;
3689;SDS011;1861;50.240;8.596;2023-12-20T07:00:47;2.40;;;0.93;;
3689;SDS011;1861;50.240;8.596;2023-12-20T07:03:16;4.63;;;0.97;;
3689;SDS011;1861;50.240;8.596;2023-12-20T07:05:44;6.33;;;1.30;;
3689;SDS011;1861;50.240;8.596;2023-12-20T07:08:12;3.43;;;0.77;;
3689;SDS011;1861;50.240;8.596;2023-12-20T07:10:42;3.27;;;1.10;;
3689;SDS011;1861;50.240;8.596;2023-12-20T07:13:11;2.50;;;1.03;;
3689;SDS011;1861;50.240;8.596;2023-12-20T07:15:40;1.23;;;0.73;;
3689;SDS011;1861;50.240;8.596;2023-12-20T07:18:09;1.73;;;1.00;;
3689;SDS011;1861;50.240;8.596;2023-12-20T07:20:37;1.87;;;0.90;;
3689;SDS011;1861;50.240;8.596;2023-12-20T07:23:06;5.07;;;1.20;;
3689;SDS011;1861;50.240;8.596;2023-12-20T07:25:34;3.40;;;0.90;;
3689;SDS011;1861;50.240;8.596;2023-12-20T07:28:02;2.00;;;1.00;;
3689;SDS011;1861;50.240;8.596;2023-12-20T07:30:32;1.20;;;0.70;;
3689;SDS011;1861;50.240;8.596;2023-12-20T07:33:01;3.87;;;1.30;;
3689;SDS011;1861;50.240;8.596;2023-12-20T07:35:29;6.43;;;1.20;;
3689;SDS011;1861;50.240;8.596;2023-12-20T07:37:57;4.60;;;1.00;;
3689;SDS011;1861;50.240;8.596;2023-12-20T07:40:26;4.97;;;1.10;;
3689;SDS011;1861;50.240;8.596;2023-12-20T07:42:54;1.47;;;0.80;;
3689;SDS011;1861;50.240;8.596;2023-12-20T07:45:22;1.00;;;0.90;;
3689;SDS011;1861;50.240;8.596;2023-12-20T07:47:52;12.00;;;1.50;;
3689;SDS011;1861;50.240;8.596;2023-12-20T07:50:20;1.73;;;1.13;;
3689;SDS011;1861;50.240;8.596;2023-12-20T07:52:49;7.07;;;0.90;;
3689;SDS011;1861;50.240;8.596;2023-12-20T07:55:17;5.13;;;1.17;;
3689;SDS011;1861;50.240;8.596;2023-12-20T07:57:45;4.93;;;1.07;;
3689;SDS011;1861;50.240;8.596;2023-12-20T08:00:14;7.33;;;1.30;;
3689;SDS011;1861;50.240;8.596;2023-12-20T08:02:42;3.07;;;1.20;;
3689;SDS011;1861;50.240;8.596;2023-12-20T08:05:12;5.80;;;1.20;;
3689;SDS011;1861;50.240;8.596;2023-12-20T08:07:42;3.30;;;1.37;;
3689;SDS011;1861;50.240;8.596;2023-12-20T08:10:11;6.17;;;1.27;;
3689;SDS011;1861;50.240;8.596;2023-12-20T08:12:40;5.70;;;1.20;;
3689;SDS011;1861;50.240;8.596;2023-12-20T08:15:08;2.17;;;1.10;;
3689;SDS011;1861;50.240;8.596;2023-12-20T08:17:37;2.67;;;1.00;;
3689;SDS011;1861;50.240;8.596;2023-12-20T08:20:05;4.23;;;1.20;;
3689;SDS011;1861;50.240;8.596;2023-12-20T08:22:36;4.70;;;1.33;;
3689;SDS011;1861;50.240;8.596;2023-12-20T08:25:04;3.43;;;1.03;;
3689;SDS011;1861;50.240;8.596;2023-12-20T08:27:33;2.87;;;1.40;;
3689;SDS011;1861;50.240;8.596;2023-12-20T08:30:01;8.10;;;1.70;;
3689;SDS011;1861;50.240;8.596;2023-12-20T08:32:29;4.23;;;1.10;;
3689;SDS011;1861;50.240;8.596;2023-12-20T08:34:58;5.87;;;1.17;;
3689;SDS011;1861;50.240;8.596;2023-12-20T08:37:26;2.73;;;1.40;;
3689;SDS011;1861;50.240;8.596;2023-12-20T08:39:56;9.77;;;1.47;;
3689;SDS011;1861;50.240;8.596;2023-12-20T08:42:24;4.53;;;1.00;;
3689;SDS011;1861;50.240;8.596;2023-12-20T08:44:57;4.40;;;1.23;;
3689;SDS011;1861;50.240;8.596;2023-12-20T08:47:26;2.83;;;1.57;;
3689;SDS011;1861;50.240;8.596;2023-12-20T08:49:54;5.57;;;1.10;;
3689;SDS011;1861;50.240;8.596;2023-12-20T08:52:23;1.83;;;1.10;;
3689;SDS011;1861;50.240;8.596;2023-12-20T08:54:52;2.87;;;1.20;;
3689;SDS011;1861;50.240;8.596;2023-12-20T08:57:21;6.37;;;1.30;;
3689;SDS011;1861;50.240;8.596;2023-12-20T08:59:51;1.33;;;0.90;;
3689;SDS011;1861;50.240;8.596;2023-12-20T09:02:19;3.47;;;1.20;;
3689;SDS011;1861;50.240;8.596;2023-12-20T09:04:47;4.80;;;1.30;;
3689;SDS011;1861;50.240;8.596;2023-12-20T09:07:22;3.70;;;1.00;;
3689;SDS011;1861;50.240;8.596;2023-12-20T09:09:51;1.33;;;0.80;;
3689;SDS011;1861;50.240;8.596;2023-12-20T09:12:19;4.60;;;1.17;;
3689;SDS011;1861;50.240;8.596;2023-12-20T09:14:49;3.23;;;1.30;;
3689;SDS011;1861;50.240;8.596;2023-12-20T09:17:18;2.10;;;1.00;;
3689;SDS011;1861;50.240;8.596;2023-12-20T09:19:47;4.60;;;1.20;;
3689;SDS011;1861;50.240;8.596;2023-12-20T09:22:15;3.67;;;1.30;;
3689;SDS011;1861;50.240;8.596;2023-12-20T09:24:43;3.10;;;1.10;;
3689;SDS011;1861;50.240;8.596;2023-12-20T09:27:12;7.87;;;1.20;;
3689;SDS011;1861;50.240;8.596;2023-12-20T09:29:40;3.93;;;1.13;;
3689;SDS011;1861;50.240;8.596;2023-12-20T09:32:09;2.60;;;1.13;;
3689;SDS011;1861;50.240;8.596;2023-12-20T09:34:37;5.07;;;0.90;;
3689;SDS011;1861;50.240;8.596;2023-12-20T09:37:06;3.43;;;1.10;;
3689;SDS011;1861;50.240;8.596;2023-12-20T09:39:34;6.43;;;1.00;;
3689;SDS011;1861;50.240;8.596;2023-12-20T09:42:03;2.43;;;0.93;;
3689;SDS011;1861;50.240;8.596;2023-12-20T09:44:32;3.67;;;1.30;;
3689;SDS011;1861;50.240;8.596;2023-12-20T09:47:02;3.03;;;0.93;;
3689;SDS011;1861;50.240;8.596;2023-12-20T09:49:33;5.07;;;1.30;;
3689;SDS011;1861;50.240;8.596;2023-12-20T09:52:02;1.83;;;0.83;;
3689;SDS011;1861;50.240;8.596;2023-12-20T09:54:34;6.83;;;1.10;;
3689;SDS011;1861;50.240;8.596;2023-12-20T09:57:02;1.93;;;0.70;;
3689;SDS011;1861;50.240;8.596;2023-12-20T09:59:32;2.33;;;0.90;;
3689;SDS011;1861;50.240;8.596;2023-12-20T10:02:00;8.73;;;1.40;;
3689;SDS011;1861;50.240;8.596;2023-12-20T10:04:34;2.43;;;0.87;;
3689;SDS011;1861;50.240;8.596;2023-12-20T10:07:03;6.40;;;1.30;;
3689;SDS011;1861;50.240;8.596;2023-12-20T10:09:33;5.43;;;1.27;;
3689;SDS011;1861;50.240;8.596;2023-12-20T10:12:02;3.00;;;1.07;;
3689;SDS011;1861;50.240;8.596;2023-12-20T10:14:32;4.30;;;1.20;;
3689;SDS011;1861;50.240;8.596;2023-12-20T10:17:02;2.70;;;0.90;;
3689;SDS011;1861;50.240;8.596;2023-12-20T10:19:31;7.30;;;1.23;;
3689;SDS011;1861;50.240;8.596;2023-12-20T10:22:01;4.13;;;1.10;;
3689;SDS011;1861;50.240;8.596;2023-12-20T10:24:32;7.00;;;1.23;;
3689;SDS011;1861;50.240;8.596;2023-12-20T10:27:03;2.00;;;1.20;;
3689;SDS011;1861;50.240;8.596;2023-12-20T10:29:32;2.10;;;1.17;;
3689;SDS011;1861;50.240;8.596;2023-12-20T10:32:21;4.50;;;1.17;;
3689;SDS011;1861;50.240;8.596;2023-12-20T10:34:51;2.80;;;1.00;;
3689;SDS011;1861;50.240;8.596;2023-12-20T10:37:21;2.13;;;1.00;;
3689;SDS011;1861;50.240;8.596;2023-12-20T10:39:50;4.00;;;1.00;;
3689;SDS011;1861;50.240;8.596;2023-12-20T10:42:23;8.90;;;1.30;;
3689;SDS011;1861;50.240;8.596;2023-12-20T10:44:53;3.30;;;1.27;;
3689;SDS011;1861;50.240;8.596;2023-12-20T10:47:22;4.53;;;1.27;;
3689;SDS011;1861;50.240;8.596;2023-12-20T10:49:52;3.97;;;1.30;;
3689;SDS011;1861;50.240;8.596;2023-12-20T10:52:24;1.13;;;0.70;;
3689;SDS011;1861;50.240;8.596;2023-12-20T10:54:53;3.10;;;1.10;;
3689;SDS011;1861;50.240;8.596;2023-12-20T10:57:22;2.53;;;1.20;;
3689;SDS011;1861;50.240;8.596;2023-12-20T10:59:54;4.80;;;1.13;;
3689;SDS011;1861;50.240;8.596;2023-12-20T11:02:23;2.97;;;1.07;;
3689;SDS011;1861;50.240;8.596;2023-12-20T11:04:53;4.00;;;1.00;;
3689;SDS011;1861;50.240;8.596;2023-12-20T11:07:30;4.87;;;1.47;;
3689;SDS011;1861;50.240;8.596;2023-12-20T11:10:03;4.87;;;1.83;;
3689;SDS011;1861;50.240;8.596;2023-12-20T11:12:41;1.70;;;1.00;;
3689;SDS011;1861;50.240;8.596;2023-12-20T11:15:14;1.53;;;0.87;;
3689;SDS011;1861;50.240;8.596;2023-12-20T11:17:44;8.67;;;1.10;;
3689;SDS011;1861;50.240;8.596;2023-12-20T11:20:18;2.70;;;1.13;;
3689;SDS011;1861;50.240;8.596;2023-12-20T11:22:54;4.93;;;1.10;;
3689;SDS011;1861;50.240;8.596;2023-12-20T11:25:23;4.43;;;1.03;;
3689;SDS011;1861;50.240;8.596;2023-12-20T11:28:08;5.63;;;1.07;;
3689;SDS011;1861;50.240;8.596;2023-12-20T11:30:41;5.97;;;1.13;;
3689;SDS011;1861;50.240;8.596;2023-12-20T11:33:13;3.47;;;1.20;;
3689;SDS011;1861;50.240;8.596;2023-12-20T11:35:42;1.60;;;1.00;;
3689;SDS011;1861;50.240;8.596;2023-12-20T11:38:12;4.10;;;1.03;;
3689;SDS011;1861;50.240;8.596;2023-12-20T11:40:41;5.67;;;1.27;;
3689;SDS011;1861;50.240;8.596;2023-12-20T11:43:10;6.20;;;1.50;;
3689;SDS011;1861;50.240;8.596;2023-12-20T11:45:39;1.33;;;0.90;;
3689;SDS011;1861;50.240;8.596;2023-12-20T11:48:18;2.67;;;1.17;;
3689;SDS011;1861;50.240;8.596;2023-12-20T11:50:47;1.90;;;0.97;;
3689;SDS011;1861;50.240;8.596;2023-12-20T11:53:16;5.77;;;0.90;;
3689;SDS011;1861;50.240;8.596;2023-12-20T11:55:47;6.33;;;1.23;;
3689;SDS011;1861;50.240;8.596;2023-12-20T11:58:15;7.73;;;0.93;;
3689;SDS011;1861;50.240;8.596;2023-12-20T12:00:43;3.17;;;1.00;;
3689;SDS011;1861;50.240;8.596;2023-12-20T12:03:14;4.07;;;1.13;;
3689;SDS011;1861;50.240;8.596;2023-12-20T12:05:42;4.40;;;1.00;;
3689;SDS011;1861;50.240;8.596;2023-12-20T12:08:10;4.20;;;1.20;;
3689;SDS011;1861;50.240;8.596;2023-12-20T12:10:41;4.97;;;1.20;;
3689;SDS011;1861;50.240;8.596;2023-12-20T12:13:10;2.63;;;1.03;;
3689;SDS011;1861;50.240;8.596;2023-12-20T12:15:38;3.23;;;1.30;;
3689;SDS011;1861;50.240;8.596;2023-12-20T12:18:08;4.83;;;2.03;;
3689;SDS011;1861;50.240;8.596;2023-12-20T12:20:38;7.00;;;1.70;;
3689;SDS011;1861;50.240;8.596;2023-12-20T12:23:06;2.90;;;0.90;;
3689;SDS011;1861;50.240;8.596;2023-12-20T12:25:35;0.73;;;0.70;;
3689;SDS011;1861;50.240;8.596;2023-12-20T12:28:10;1.07;;;0.80;;
3689;SDS011;1861;50.240;8.596;2023-12-20T12:30:38;4.47;;;1.17;;
3689;SDS011;1861;50.240;8.596;2023-12-20T12:33:19;11.40;;;1.13;;
3689;SDS011;1861;50.240;8.596;2023-12-20T12:35:48;3.43;;;1.10;;
3689;SDS011;1861;50.240;8.596;2023-12-20T12:38:16;4.53;;;1.27;;
3689;SDS011;1861;50.240;8.596;2023-12-20T12:40:47;7.40;;;1.40;;
3689;SDS011;1861;50.240;8.596;2023-12-20T12:43:16;2.80;;;1.23;;
3689;SDS011;1861;50.240;8.596;2023-12-20T12:45:44;2.20;;;1.10;;
3689;SDS011;1861;50.240;8.596;2023-12-20T12:48:13;1.63;;;1.33;;
3689;SDS011;1861;50.240;8.596;2023-12-20T12:50:41;4.17;;;0.90;;
3689;SDS011;1861;50.240;8.596;2023-12-20T12:53:10;3.90;;;2.10;;
3689;SDS011;1861;50.240;8.596;2023-12-20T12:55:38;4.50;;;1.00;;
3689;SDS011;1861;50.240;8.596;2023-12-20T12:58:06;1.63;;;0.90;;
3689;SDS011;1861;50.240;8.596;2023-12-20T13:00:35;1.73;;;1.10;;
3689;SDS011;1861;50.240;8.596;2023-12-20T13:03:04;3.63;;;1.20;;
3689;SDS011;1861;50.240;8.596;2023-12-20T13:05:32;0.70;;;0.67;;
3689;SDS011;1861;50.240;8.596;2023-12-20T13:08:05;3.50;;;1.07;;
3689;SDS011;1861;50.240;8.596;2023-12-20T13:10:34;1.83;;;1.20;;
3689;SDS011;1861;50.240;8.596;2023-12-20T13:13:02;3.57;;;0.90;;
3689;SDS011;1861;50.240;8.596;2023-12-20T13:15:31;2.97;;;1.07;;
3689;SDS011;1861;50.240;8.596;2023-12-20T13:18:01;3.43;;;1.00;;
3689;SDS011;1861;50.240;8.596;2023-12-20T13:20:29;3.47;;;1.17;;
3689;SDS011;1861;50.240;8.596;2023-12-20T13:22:57;2.73;;;1.03;;
3689;SDS011;1861;50.240;8.596;2023-12-20T13:25:25;6.80;;;1.00;;
3689;SDS011;1861;50.240;8.596;2023-12-20T13:27:53;3.10;;;1.10;;
3689;SDS011;1861;50.240;8.596;2023-12-20T13:30:22;2.93;;;0.83;;
3689;SDS011;1861;50.240;8.596;2023-12-20T13:32:50;3.97;;;0.90;;
3689;SDS011;1861;50.240;8.596;2023-12-20T13:35:20;11.70;;;1.43;;
3689;SDS011;1861;50.240;8.596;2023-12-20T13:37:48;2.83;;;0.93;;
3689;SDS011;1861;50.240;8.596;2023-12-20T13:40:16;3.73;;;1.13;;
3689;SDS011;1861;50.240;8.596;2023-12-20T13:42:45;1.07;;;0.90;;
3689;SDS011;1861;50.240;8.596;2023-12-20T13:45:15;3.13;;;1.10;;
3689;SDS011;1861;50.240;8.596;2023-12-20T13:47:43;3.83;;;1.57;;
3689;SDS011;1861;50.240;8.596;2023-12-20T13:50:12;6.80;;;1.17;;
3689;SDS011;1861;50.240;8.596;2023-12-20T13:52:41;2.23;;;1.17;;
3689;SDS011;1861;50.240;8.596;2023-12-20T13:55:10;1.77;;;0.90;;
3689;SDS011;1861;50.240;8.596;2023-12-20T13:57:38;4.90;;;1.30;;
3689;SDS011;1861;50.240;8.596;2023-12-20T14:00:21;2.20;;;0.80;;
3689;SDS011;1861;50.240;8.596;2023-12-20T14:02:49;5.00;;;1.63;;
3689;SDS011;1861;50.240;8.596;2023-12-20T14:05:17;7.17;;;1.67;;
3689;SDS011;1861;50.240;8.596;2023-12-20T14:07:48;5.07;;;1.87;;
3689;SDS011;1861;50.240;8.596;2023-12-20T14:10:17;3.43;;;1.10;;
3689;SDS011;1861;50.240;8.596;2023-12-20T14:12:45;4.60;;;1.20;;
3689;SDS011;1861;50.240;8.596;2023-12-20T14:15:13;4.40;;;1.23;;
3689;SDS011;1861;50.240;8.596;2023-12-20T14:17:41;2.13;;;1.00;;
3689;SDS011;1861;50.240;8.596;2023-12-20T14:20:10;5.77;;;1.43;;
3689;SDS011;1861;50.240;8.596;2023-12-20T14:22:39;6.67;;;1.20;;
3689;SDS011;1861;50.240;8.596;2023-12-20T14:25:12;2.00;;;1.00;;
3689;SDS011;1861;50.240;8.596;2023-12-20T14:27:41;4.63;;;1.63;;
3689;SDS011;1861;50.240;8.596;2023-12-20T14:30:12;1.57;;;1.13;;
3689;SDS011;1861;50.240;8.596;2023-12-20T14:32:41;2.90;;;1.30;;
3689;SDS011;1861;50.240;8.596;2023-12-20T14:35:10;5.47;;;1.07;;
3689;SDS011;1861;50.240;8.596;2023-12-20T14:37:39;1.03;;;0.90;;
3689;SDS011;1861;50.240;8.596;2023-12-20T14:40:08;3.93;;;1.17;;
3689;SDS011;1861;50.240;8.596;2023-12-20T14:42:39;9.07;;;1.60;;
3689;SDS011;1861;50.240;8.596;2023-12-20T14:45:07;6.43;;;1.13;;
3689;SDS011;1861;50.240;8.596;2023-12-20T14:47:36;3.60;;;1.10;;
3689;SDS011;1861;50.240;8.596;2023-12-20T14:50:05;2.50;;;1.10;;
3689;SDS011;1861;50.240;8.596;2023-12-20T14:52:34;4.10;;;1.53;;
3689;SDS011;1861;50.240;8.596;2023-12-20T14:55:03;2.70;;;0.90;;
3689;SDS011;1861;50.240;8.596;2023-12-20T14:57:32;1.97;;;1.00;;
3689;SDS011;1861;50.240;8.596;2023-12-20T15:00:02;2.87;;;1.10;;
3689;SDS011;1861;50.240;8.596;2023-12-20T15:02:31;2.87;;;1.10;;
3689;SDS011;1861;50.240;8.596;2023-12-20T15:04:59;1.70;;;0.70;;
3689;SDS011;1861;50.240;8.596;2023-12-20T15:07:27;3.40;;;1.27;;
3689;SDS011;1861;50.240;8.596;2023-12-20T15:09:56;5.50;;;1.00;;
3689;SDS011;1861;50.240;8.596;2023-12-20T15:12:24;3.70;;;0.97;;
3689;SDS011;1861;50.240;8.596;2023-12-20T15:14:52;4.33;;;1.00;;
3689;SDS011;1861;50.240;8.596;2023-12-20T15:17:21;1.77;;;0.80;;
3689;SDS011;1861;50.240;8.596;2023-12-20T15:19:50;1.03;;;0.80;;
3689;SDS011;1861;50.240;8.596;2023-12-20T15:22:18;2.13;;;1.00;;
3689;SDS011;1861;50.240;8.596;2023-12-20T15:24:46;6.17;;;1.00;;
3689;SDS011;1861;50.240;8.596;2023-12-20T15:27:14;1.20;;;0.77;;